createdAt,value
2023-02-24T00:00:50.256Z,1.96
2023-02-24T00:01:50.246Z,1.54
2023-02-24T00:02:50.299Z,1.43
2023-02-24T00:03:50.254Z,1.54
2023-02-24T00:04:50.205Z,1.54
2023-02-24T00:05:50.197Z,1.54
2023-02-24T00:06:50.183Z,1.96
2023-02-24T00:07:50.164Z,1.54
2023-02-24T00:08:50.151Z,1.96
2023-02-24T00:09:50.138Z,1.22
2023-02-24T00:10:50.125Z,1.43
2023-02-24T00:11:50.115Z,1.75
2023-02-24T00:12:50.129Z,1.85
2023-02-24T00:13:50.095Z,1.75
2023-02-24T00:14:50.074Z,1.54
2023-02-24T00:15:50.056Z,1.54
2023-02-24T00:16:50.167Z,1.54
2023-02-24T00:17:50.033Z,1.64
2023-02-24T00:18:50.021Z,1.64
2023-02-24T00:19:50.009Z,1.33
2023-02-24T00:20:49.998Z,1.22
2023-02-24T00:21:49.979Z,1.33
2023-02-24T00:22:49.971Z,1.11
2023-02-24T00:23:49.957Z,1.43
2023-02-24T00:24:49.945Z,1.33
2023-02-24T00:25:49.940Z,1.64
2023-02-24T00:26:49.916Z,1.75
2023-02-24T00:27:49.908Z,1.85
2023-02-24T00:28:49.918Z,1.85
2023-02-24T00:29:49.879Z,1.96
2023-02-24T00:30:49.923Z,1.43
2023-02-24T00:31:50.129Z,1.64
2023-02-24T00:32:49.988Z,2.06
2023-02-24T00:33:49.832Z,1.96
2023-02-24T00:34:49.826Z,1.75
2023-02-24T00:35:49.809Z,1.64
2023-02-24T00:36:49.822Z,2.17
2023-02-24T00:37:49.792Z,1.85
2023-02-24T00:38:49.780Z,2.06
2023-02-24T00:39:49.757Z,1.54
2023-02-24T00:40:49.749Z,1.54
2023-02-24T00:41:49.732Z,1.54
2023-02-24T00:42:49.721Z,1.54
2023-02-24T00:43:49.712Z,1.64
2023-02-24T00:44:49.730Z,1.54
2023-02-24T00:45:49.685Z,1.43
2023-02-24T00:46:49.671Z,1.54
2023-02-24T00:47:49.656Z,1.43
2023-02-24T00:48:49.645Z,1.64
2023-02-24T00:49:49.631Z,1.54
2023-02-24T00:50:49.621Z,1.64
2023-02-24T00:51:49.620Z,1.64
2023-02-24T00:52:49.597Z,1.64
2023-02-24T00:53:49.579Z,1.64
2023-02-24T00:54:49.567Z,1.33
2023-02-24T00:55:49.555Z,1.64
2023-02-24T00:56:49.548Z,1.54
2023-02-24T00:57:49.529Z,1.54
2023-02-24T00:58:49.518Z,1.33
2023-02-24T00:59:49.504Z,1.64
2023-02-24T01:00:49.518Z,1.75
2023-02-24T01:01:49.542Z,1.75
2023-02-24T01:02:49.491Z,1.64
2023-02-24T01:03:49.507Z,1.22
2023-02-24T01:04:49.441Z,1.33
2023-02-24T01:05:49.424Z,1.75
2023-02-24T01:06:49.413Z,1.54
2023-02-24T01:07:49.429Z,1.64
2023-02-24T01:08:49.386Z,1.85
2023-02-24T01:09:49.372Z,2.48
2023-02-24T01:10:49.362Z,1.75
2023-02-24T01:11:49.449Z,2.27
2023-02-24T01:12:49.402Z,1.75
2023-02-24T01:13:49.336Z,1.85
2023-02-24T01:14:49.310Z,1.75
2023-02-24T01:15:49.342Z,1.85
2023-02-24T01:16:49.304Z,1.75
2023-02-24T01:17:49.267Z,1.64
2023-02-24T01:18:49.256Z,1.54
2023-02-24T01:19:49.239Z,1.75
2023-02-24T01:20:49.230Z,1.75
2023-02-24T01:21:49.215Z,1.75
2023-02-24T01:22:49.223Z,1.43
2023-02-24T01:23:49.189Z,1.64
2023-02-24T01:24:49.184Z,1.75
2023-02-24T01:25:49.162Z,1.54
2023-02-24T01:26:49.149Z,1.64
2023-02-24T01:27:49.163Z,1.64
2023-02-24T01:28:49.126Z,1.54
2023-02-24T01:29:49.144Z,1.54
2023-02-24T01:30:49.100Z,1.75
2023-02-24T01:31:50.092Z,1.75
2023-02-24T01:32:49.432Z,2.06
2023-02-24T01:33:49.057Z,1.85
2023-02-24T01:34:49.054Z,1.43
2023-02-24T01:35:49.034Z,1.11
2023-02-24T01:36:49.025Z,1.33
2023-02-24T01:37:49.012Z,2.06
2023-02-24T01:38:48.996Z,1.54
2023-02-24T01:39:48.982Z,1.85
2023-02-24T01:40:48.973Z,2.69
2023-02-24T01:41:48.956Z,1.75
2023-02-24T01:42:48.944Z,1.75
2023-02-24T01:43:48.931Z,1.85
2023-02-24T01:44:48.947Z,1.22
2023-02-24T01:45:48.908Z,1.22
2023-02-24T01:46:48.921Z,1.11
2023-02-24T01:47:48.878Z,1.22
2023-02-24T01:48:48.895Z,1.43
2023-02-24T01:49:48.853Z,1.22
2023-02-24T01:50:48.845Z,1.54
2023-02-24T01:51:48.826Z,1.33
2023-02-24T01:52:48.818Z,2.69
2023-02-24T01:53:48.801Z,1.75
2023-02-24T01:54:48.789Z,1.54
2023-02-24T01:55:48.775Z,3.80
2023-02-24T01:56:48.761Z,1.64
2023-02-24T01:57:48.754Z,1.96
2023-02-24T01:58:48.738Z,2.38
2023-02-24T01:59:48.737Z,1.43
2023-02-24T02:00:48.728Z,1.43
2023-02-24T02:01:48.858Z,1.43
2023-02-24T02:02:48.756Z,1.33
2023-02-24T02:03:48.673Z,1.22
2023-02-24T02:04:48.683Z,1.11
2023-02-24T02:05:48.834Z,1.43
2023-02-24T02:06:48.639Z,1.75
2023-02-24T02:07:48.618Z,1.43
2023-02-24T02:08:48.607Z,1.75
2023-02-24T02:09:48.601Z,1.64
2023-02-24T02:10:48.582Z,1.54
2023-02-24T02:11:48.565Z,1.75
2023-02-24T02:12:48.553Z,1.43
2023-02-24T02:13:48.603Z,1.54
2023-02-24T02:14:48.527Z,1.54
2023-02-24T02:15:48.549Z,1.54
2023-02-24T02:16:48.501Z,1.43
2023-02-24T02:17:48.492Z,1.54
2023-02-24T02:18:48.476Z,1.64
2023-02-24T02:19:48.466Z,1.75
2023-02-24T02:20:48.473Z,1.64
2023-02-24T02:21:48.461Z,1.54
2023-02-24T02:22:48.421Z,1.64
2023-02-24T02:23:48.407Z,1.75
2023-02-24T02:24:48.467Z,1.54
2023-02-24T02:25:48.381Z,1.54
2023-02-24T02:26:48.370Z,1.64
2023-02-24T02:27:48.355Z,2.17
2023-02-24T02:28:48.352Z,1.64
2023-02-24T02:29:48.336Z,1.75
2023-02-24T02:30:48.356Z,2.27
2023-02-24T02:31:48.384Z,1.85
2023-02-24T02:32:48.378Z,1.96
2023-02-24T02:33:48.277Z,1.75
2023-02-24T02:34:48.265Z,1.75
2023-02-24T02:35:48.251Z,1.43
2023-02-24T02:36:48.271Z,1.54
2023-02-24T02:37:48.229Z,1.54
2023-02-24T02:38:48.212Z,1.64
2023-02-24T02:39:48.219Z,1.64
2023-02-24T02:40:48.192Z,1.64
2023-02-24T02:41:48.172Z,1.54
2023-02-24T02:42:48.174Z,1.85
2023-02-24T02:43:48.146Z,1.64
2023-02-24T02:44:48.132Z,1.75
2023-02-24T02:45:48.205Z,1.64
2023-02-24T02:46:48.105Z,1.64
2023-02-24T02:47:48.091Z,1.33
2023-02-24T02:48:48.105Z,1.33
2023-02-24T02:49:48.064Z,1.33
2023-02-24T02:50:48.051Z,1.33
2023-02-24T02:51:48.038Z,1.75
2023-02-24T02:52:48.052Z,1.64
2023-02-24T02:53:48.010Z,1.54
2023-02-24T02:54:47.997Z,1.54
2023-02-24T02:55:47.987Z,1.54
2023-02-24T02:56:47.970Z,1.85
2023-02-24T02:57:47.969Z,1.43
2023-02-24T02:58:47.953Z,1.22
2023-02-24T02:59:47.935Z,1.33
2023-02-24T03:00:47.947Z,1.54
2023-02-24T03:01:47.909Z,1.75
2023-02-24T03:02:47.896Z,1.54
2023-02-24T03:03:47.895Z,1.75
2023-02-24T03:04:47.953Z,1.43
2023-02-24T03:05:47.853Z,1.85
2023-02-24T03:06:47.851Z,1.75
2023-02-24T03:07:47.826Z,1.75
2023-02-24T03:08:47.836Z,2.06
2023-02-24T03:09:47.803Z,1.96
2023-02-24T03:10:47.788Z,2.17
2023-02-24T03:11:47.772Z,1.96
2023-02-24T03:12:47.762Z,1.75
2023-02-24T03:13:47.748Z,1.54
2023-02-24T03:14:47.732Z,1.64
2023-02-24T03:15:47.720Z,1.64
2023-02-24T03:16:47.776Z,1.64
2023-02-24T03:17:47.707Z,1.75
2023-02-24T03:18:47.679Z,1.75
2023-02-24T03:19:47.667Z,2.06
2023-02-24T03:20:47.653Z,1.85
2023-02-24T03:21:47.643Z,1.96
2023-02-24T03:22:47.628Z,2.06
2023-02-24T03:23:47.617Z,1.85
2023-02-24T03:24:47.626Z,2.06
2023-02-24T03:25:47.590Z,2.06
2023-02-24T03:26:47.578Z,2.48
2023-02-24T03:27:47.564Z,2.27
2023-02-24T03:28:47.554Z,2.48
2023-02-24T03:29:47.552Z,2.27
2023-02-24T03:30:47.591Z,2.06
2023-02-24T03:31:47.679Z,2.27
2023-02-24T03:32:47.628Z,2.38
2023-02-24T03:33:47.488Z,2.06
2023-02-24T03:34:47.492Z,2.27
2023-02-24T03:35:47.473Z,1.75
2023-02-24T03:36:47.446Z,1.75
2023-02-24T03:37:47.454Z,1.96
2023-02-24T03:38:47.422Z,2.17
2023-02-24T03:39:47.407Z,2.17
2023-02-24T03:40:47.421Z,2.27
2023-02-24T03:41:47.384Z,1.64
2023-02-24T03:42:47.368Z,2.17
2023-02-24T03:43:47.360Z,1.64
2023-02-24T03:44:47.340Z,1.75
2023-02-24T03:45:47.350Z,1.85
2023-02-24T03:46:47.315Z,1.75
2023-02-24T03:47:47.316Z,1.43
2023-02-24T03:48:47.292Z,1.96
2023-02-24T03:49:47.276Z,1.96
2023-02-24T03:50:47.261Z,1.75
2023-02-24T03:51:47.250Z,1.85
2023-02-24T03:52:47.312Z,2.17
2023-02-24T03:53:47.224Z,1.96
2023-02-24T03:54:47.211Z,1.96
2023-02-24T03:55:47.200Z,1.96
2023-02-24T03:56:47.222Z,2.38
2023-02-24T03:57:47.172Z,2.17
2023-02-24T03:58:47.164Z,1.75
2023-02-24T03:59:47.168Z,1.64
2023-02-24T04:00:47.150Z,1.96
2023-02-24T04:01:47.121Z,1.96
2023-02-24T04:02:47.217Z,1.96
2023-02-24T04:03:47.092Z,2.58
2023-02-24T04:04:47.128Z,2.06
2023-02-24T04:05:47.066Z,2.17
2023-02-24T04:06:47.055Z,2.48
2023-02-24T04:07:47.041Z,2.48
2023-02-24T04:08:47.024Z,2.17
2023-02-24T04:09:47.012Z,2.17
2023-02-24T04:10:46.998Z,2.38
2023-02-24T04:11:46.997Z,2.17
2023-02-24T04:12:47.191Z,2.27
2023-02-24T04:13:46.974Z,2.06
2023-02-24T04:14:46.947Z,2.17
2023-02-24T04:15:47.033Z,2.17
2023-02-24T04:16:46.923Z,1.96
2023-02-24T04:17:46.908Z,2.48
2023-02-24T04:18:46.895Z,1.96
2023-02-24T04:19:46.886Z,1.64
2023-02-24T04:20:46.870Z,1.54
2023-02-24T04:21:46.855Z,1.96
2023-02-24T04:22:46.840Z,1.85
2023-02-24T04:23:46.829Z,1.85
2023-02-24T04:24:46.817Z,1.75
2023-02-24T04:25:46.811Z,1.64
2023-02-24T04:26:46.787Z,1.64
2023-02-24T04:27:46.776Z,1.75
2023-02-24T04:28:46.846Z,1.64
2023-02-24T04:29:46.757Z,1.85
2023-02-24T04:30:46.868Z,1.85
2023-02-24T04:31:46.995Z,1.85
2023-02-24T04:32:46.735Z,2.06
2023-02-24T04:33:46.697Z,2.27
2023-02-24T04:34:46.683Z,2.38
2023-02-24T04:35:46.676Z,2.27
2023-02-24T04:36:46.659Z,1.85
2023-02-24T04:37:46.654Z,2.06
2023-02-24T04:38:46.637Z,1.96
2023-02-24T04:39:46.626Z,1.85
2023-02-24T04:40:46.604Z,1.85
2023-02-24T04:41:46.595Z,2.27
2023-02-24T04:42:46.729Z,2.17
2023-02-24T04:43:46.567Z,2.27
2023-02-24T04:44:46.578Z,2.27
2023-02-24T04:45:46.541Z,2.17
2023-02-24T04:46:46.618Z,2.06
2023-02-24T04:47:46.514Z,2.17
2023-02-24T04:48:46.517Z,2.17
2023-02-24T04:49:46.490Z,2.38
2023-02-24T04:50:46.481Z,2.27
2023-02-24T04:51:46.461Z,2.58
2023-02-24T04:52:46.448Z,2.27
2023-02-24T04:53:46.436Z,2.06
2023-02-24T04:54:46.425Z,2.17
2023-02-24T04:55:46.409Z,2.48
2023-02-24T04:56:46.396Z,2.17
2023-02-24T04:57:46.383Z,2.27
2023-02-24T04:58:46.493Z,2.38
2023-02-24T04:59:46.357Z,2.38
2023-02-24T05:00:46.372Z,2.06
2023-02-24T05:01:46.332Z,2.38
2023-02-24T05:02:46.318Z,2.38
2023-02-24T05:03:46.517Z,2.38
2023-02-24T05:04:46.372Z,2.27
2023-02-24T05:05:46.280Z,2.27
2023-02-24T05:06:46.265Z,2.06
2023-02-24T05:07:46.257Z,2.27
2023-02-24T05:08:46.241Z,2.38
2023-02-24T05:09:46.228Z,2.17
2023-02-24T05:10:46.214Z,2.17
2023-02-24T05:11:46.216Z,1.85
2023-02-24T05:12:46.188Z,2.06
2023-02-24T05:13:46.316Z,2.27
2023-02-24T05:14:46.168Z,2.48
2023-02-24T05:15:46.203Z,2.27
2023-02-24T05:16:46.160Z,2.38
2023-02-24T05:17:46.134Z,2.06
2023-02-24T05:18:46.115Z,1.96
2023-02-24T05:19:46.114Z,2.27
2023-02-24T05:20:46.158Z,2.17
2023-02-24T05:21:46.075Z,2.27
2023-02-24T05:22:46.061Z,2.06
2023-02-24T05:23:46.069Z,2.27
2023-02-24T05:24:46.033Z,2.38
2023-02-24T05:25:46.020Z,2.27
2023-02-24T05:26:46.014Z,2.27
2023-02-24T05:27:45.993Z,2.06
2023-02-24T05:28:45.979Z,2.17
2023-02-24T05:29:45.990Z,2.27
2023-02-24T05:30:45.990Z,2.58
2023-02-24T05:31:46.118Z,2.38
2023-02-24T05:32:46.036Z,2.17
2023-02-24T05:33:45.916Z,2.48
2023-02-24T05:34:45.902Z,2.38
2023-02-24T05:35:45.889Z,2.69
2023-02-24T05:36:45.940Z,2.27
2023-02-24T05:37:45.898Z,2.38
2023-02-24T05:38:45.847Z,2.38
2023-02-24T05:39:45.845Z,2.48
2023-02-24T05:40:45.821Z,2.48
2023-02-24T05:41:45.811Z,2.48
2023-02-24T05:42:45.795Z,2.58
2023-02-24T05:43:45.781Z,2.38
2023-02-24T05:44:45.766Z,2.17
2023-02-24T05:45:45.755Z,2.17
2023-02-24T05:46:45.830Z,2.38
2023-02-24T05:47:45.727Z,1.96
2023-02-24T05:48:45.739Z,2.06
2023-02-24T05:49:45.704Z,1.96
2023-02-24T05:50:45.688Z,2.17
2023-02-24T05:51:45.676Z,2.27
2023-02-24T05:52:45.665Z,2.27
2023-02-24T05:53:45.653Z,1.96
2023-02-24T05:54:45.634Z,2.38
2023-02-24T05:55:45.624Z,2.27
2023-02-24T05:56:45.612Z,2.17
2023-02-24T05:57:45.596Z,2.17
2023-02-24T05:58:45.585Z,2.27
2023-02-24T05:59:45.572Z,2.17
2023-02-24T06:00:45.556Z,2.27
2023-02-24T06:01:45.588Z,2.06
2023-02-24T06:02:45.581Z,2.27
2023-02-24T06:03:45.520Z,2.17
2023-02-24T06:04:45.544Z,2.17
2023-02-24T06:05:45.496Z,2.17
2023-02-24T06:06:45.479Z,2.06
2023-02-24T06:07:45.467Z,2.69
2023-02-24T06:08:45.453Z,1.96
2023-02-24T06:09:45.440Z,2.48
2023-02-24T06:10:45.425Z,2.27
2023-02-24T06:11:45.512Z,2.48
2023-02-24T06:12:45.396Z,2.27
2023-02-24T06:13:45.388Z,2.27
2023-02-24T06:14:45.376Z,2.38
2023-02-24T06:15:45.362Z,2.27
2023-02-24T06:16:45.425Z,2.58
2023-02-24T06:17:45.336Z,3.70
2023-02-24T06:18:45.344Z,2.38
2023-02-24T06:19:45.341Z,2.06
2023-02-24T06:20:45.328Z,1.75
2023-02-24T06:21:45.285Z,1.96
2023-02-24T06:22:45.268Z,2.06
2023-02-24T06:23:45.274Z,2.48
2023-02-24T06:24:45.254Z,2.06
2023-02-24T06:25:45.233Z,1.75
2023-02-24T06:26:45.215Z,1.96
2023-02-24T06:27:45.209Z,1.85
2023-02-24T06:28:45.193Z,2.06
2023-02-24T06:29:45.181Z,2.27
2023-02-24T06:30:45.192Z,2.17
2023-02-24T06:31:45.287Z,0.00
2023-02-24T06:32:45.280Z,0.00
2023-02-24T06:33:45.129Z,0.00
2023-02-24T06:34:45.120Z,0.00
2023-02-24T06:35:45.104Z,0.00
2023-02-24T06:36:45.115Z,0.00
2023-02-24T06:37:45.077Z,0.00
2023-02-24T06:38:45.063Z,0.00
2023-02-24T06:39:45.053Z,0.00
2023-02-24T06:40:45.037Z,0.00
2023-02-24T06:41:45.025Z,0.00
2023-02-24T06:42:45.009Z,0.00
2023-02-24T06:43:45.002Z,0.00
2023-02-24T06:44:44.984Z,0.00
2023-02-24T06:45:45.023Z,0.00
2023-02-24T06:46:44.959Z,0.00
2023-02-24T06:47:44.951Z,0.00
2023-02-24T06:48:44.938Z,0.00
2023-02-24T06:49:44.925Z,0.00
2023-02-24T06:50:44.906Z,0.00
2023-02-24T06:51:44.902Z,0.00
2023-02-24T06:52:44.903Z,0.00
2023-02-24T06:53:44.879Z,0.00
2023-02-24T06:54:44.854Z,0.00
2023-02-24T06:55:44.844Z,0.00
2023-02-24T06:56:44.828Z,0.00
2023-02-24T06:57:44.817Z,0.00
2023-02-24T06:59:50.801Z,0.00
2023-02-24T07:00:44.779Z,0.00
2023-02-24T07:01:44.764Z,0.00
2023-02-24T07:02:44.753Z,2.06
2023-02-24T07:03:44.738Z,0.00
2023-02-24T07:04:44.738Z,0.00
2023-02-24T07:05:44.715Z,1.11
2023-02-24T07:06:44.698Z,0.00
2023-02-24T07:07:44.690Z,0.00
2023-02-24T07:08:44.704Z,0.00
2023-02-24T07:09:44.660Z,0.00
2023-02-24T07:10:44.642Z,0.00
2023-02-24T07:11:46.729Z,0.00
2023-02-24T07:12:44.621Z,0.00
2023-02-24T07:13:44.604Z,0.00
2023-02-24T07:14:44.598Z,0.00
2023-02-24T07:15:44.578Z,0.00
2023-02-24T07:16:44.598Z,0.00
2023-02-24T07:17:45.191Z,0.00
2023-02-24T07:18:44.539Z,0.00
2023-02-24T07:19:44.525Z,0.00
2023-02-24T07:20:44.515Z,0.00
2023-02-24T07:21:44.502Z,0.00
2023-02-24T07:22:44.488Z,0.00
2023-02-24T07:23:44.474Z,0.00
2023-02-24T07:24:44.484Z,1.85
2023-02-24T07:25:44.449Z,0.00
2023-02-24T07:26:44.445Z,0.90
2023-02-24T07:27:44.420Z,0.00
2023-02-24T07:28:44.409Z,0.00
2023-02-24T07:29:44.397Z,0.00
2023-02-24T07:30:44.587Z,0.90
2023-02-24T07:31:44.587Z,0.00
2023-02-24T07:32:44.419Z,0.00
2023-02-24T07:33:44.341Z,1.33
2023-02-24T07:34:44.343Z,1.64
2023-02-24T07:35:44.314Z,0.00
2023-02-24T07:36:44.304Z,1.64
2023-02-24T07:37:44.288Z,0.47
2023-02-24T07:38:44.275Z,0.00
2023-02-24T07:39:44.260Z,0.90
2023-02-24T07:40:44.278Z,0.00
2023-02-24T07:41:44.237Z,0.00
2023-02-24T07:42:44.224Z,0.47
2023-02-24T07:43:44.231Z,0.00
2023-02-24T07:44:44.196Z,0.00
2023-02-24T07:45:44.179Z,0.00
2023-02-24T07:46:44.191Z,0.68
2023-02-24T07:47:44.156Z,0.68
2023-02-24T07:48:44.145Z,0.00
2023-02-24T07:49:44.135Z,0.00
2023-02-24T07:50:44.119Z,0.68
2023-02-24T07:51:44.104Z,0.00
2023-02-24T07:52:44.092Z,0.00
2023-02-24T07:53:44.082Z,2.79
2023-02-24T07:54:44.079Z,2.79
2023-02-24T07:55:44.054Z,0.79
2023-02-24T07:56:44.068Z,2.58
2023-02-24T07:57:44.030Z,0.68
2023-02-24T07:58:44.017Z,2.58
2023-02-24T07:59:44.003Z,0.00
2023-02-24T08:00:43.991Z,0.00
2023-02-24T08:01:43.976Z,0.00
2023-02-24T08:02:44.004Z,0.00
2023-02-24T08:03:43.952Z,0.58
2023-02-24T08:04:43.945Z,0.68
2023-02-24T08:05:44.062Z,0.00
2023-02-24T08:06:46.166Z,1.01
2023-02-24T08:07:43.909Z,0.00
2023-02-24T08:08:43.890Z,0.00
2023-02-24T08:09:43.875Z,0.00
2023-02-24T08:10:43.866Z,0.47
2023-02-24T08:11:43.852Z,0.00
2023-02-24T08:12:43.877Z,0.00
2023-02-24T08:13:43.825Z,1.33
2023-02-24T08:14:43.812Z,0.00
2023-02-24T08:15:43.834Z,0.00
2023-02-24T08:16:43.818Z,2.17
2023-02-24T08:17:43.773Z,0.00
2023-02-24T08:18:43.762Z,0.00
2023-02-24T08:19:43.756Z,0.00
2023-02-24T08:20:43.736Z,0.00
2023-02-24T08:21:43.721Z,0.00
2023-02-24T08:22:43.713Z,0.00
2023-02-24T08:23:43.695Z,1.43
2023-02-24T08:24:43.690Z,1.11
2023-02-24T08:25:43.671Z,0.58
2023-02-24T08:26:43.655Z,0.00
2023-02-24T08:27:43.645Z,0.00
2023-02-24T08:28:43.668Z,0.00
2023-02-24T08:29:43.617Z,0.00
2023-02-24T08:30:43.662Z,2.69
2023-02-24T08:31:43.788Z,1.11
2023-02-24T08:32:43.961Z,0.00
2023-02-24T08:33:43.564Z,0.00
2023-02-24T08:34:43.551Z,0.00
2023-02-24T08:35:43.537Z,0.00
2023-02-24T08:36:43.528Z,0.00
2023-02-24T08:37:43.512Z,0.79
2023-02-24T08:38:43.499Z,0.79
2023-02-24T08:39:43.496Z,0.00
2023-02-24T08:40:43.478Z,0.00
2023-02-24T08:41:43.461Z,1.75
2023-02-24T08:42:43.450Z,1.96
2023-02-24T08:43:43.452Z,0.00
2023-02-24T08:44:43.444Z,0.00
2023-02-24T08:45:43.409Z,2.79
2023-02-24T08:46:43.441Z,0.00
2023-02-24T08:47:43.393Z,1.54
2023-02-24T08:48:43.402Z,0.00
2023-02-24T08:49:44.442Z,0.00
2023-02-24T08:50:43.351Z,0.00
2023-02-24T08:51:43.336Z,0.00
2023-02-24T08:52:43.342Z,1.11
2023-02-24T08:53:43.315Z,0.00
2023-02-24T08:54:43.298Z,2.48
2023-02-24T08:55:43.285Z,0.00
2023-02-24T08:56:43.428Z,0.00
2023-02-24T08:57:43.259Z,0.00
2023-02-24T08:58:43.248Z,1.01
2023-02-24T08:59:43.240Z,0.00
2023-02-24T09:00:43.285Z,0.00
2023-02-24T09:01:45.249Z,0.00
2023-02-24T09:02:43.197Z,0.00
2023-02-24T09:03:43.182Z,0.00
2023-02-24T09:04:43.206Z,0.00
2023-02-24T09:05:43.158Z,0.00
2023-02-24T09:06:43.149Z,0.00
2023-02-24T09:07:43.130Z,0.00
2023-02-24T09:08:43.118Z,0.00
2023-02-24T09:09:43.110Z,0.47
2023-02-24T09:10:43.094Z,0.00
2023-02-24T09:11:43.079Z,0.00
2023-02-24T09:12:43.069Z,0.00
2023-02-24T09:13:43.115Z,0.00
2023-02-24T09:14:43.041Z,0.00
2023-02-24T09:15:43.029Z,0.58
2023-02-24T09:16:43.160Z,0.47
2023-02-24T09:17:43.014Z,0.00
2023-02-24T09:18:42.991Z,0.00
2023-02-24T09:19:42.979Z,1.22
2023-02-24T09:20:42.962Z,0.00
2023-02-24T09:21:42.947Z,0.47
2023-02-24T09:22:42.932Z,0.00
2023-02-24T09:23:42.917Z,0.00
2023-02-24T09:24:42.908Z,0.00
2023-02-24T09:25:42.894Z,0.00
2023-02-24T09:26:42.883Z,0.00
2023-02-24T09:27:42.863Z,0.90
2023-02-24T09:28:42.898Z,0.00
2023-02-24T09:29:42.841Z,0.47
2023-02-24T09:30:42.882Z,0.00
2023-02-24T09:31:43.109Z,0.00
2023-02-24T09:32:42.935Z,0.00
2023-02-24T09:33:42.791Z,0.79
2023-02-24T09:34:42.774Z,0.00
2023-02-24T09:35:42.759Z,0.00
2023-02-24T09:36:42.787Z,0.00
2023-02-24T09:37:42.734Z,0.00
2023-02-24T09:38:42.724Z,0.00
2023-02-24T09:39:42.705Z,0.00
2023-02-24T09:40:42.694Z,1.85
2023-02-24T09:41:42.680Z,1.33
2023-02-24T09:42:42.670Z,1.85
2023-02-24T09:43:42.655Z,0.00
2023-02-24T09:44:42.645Z,0.00
2023-02-24T09:45:42.826Z,0.00
2023-02-24T09:46:42.730Z,0.00
2023-02-24T09:47:42.603Z,0.00
2023-02-24T09:48:42.611Z,1.11
2023-02-24T09:49:42.574Z,0.00
2023-02-24T09:51:01.500Z,0.00
2023-02-24T09:51:42.553Z,0.00
2023-02-24T09:52:42.550Z,0.00
2023-02-24T09:53:42.522Z,0.00
2023-02-24T09:54:42.511Z,0.90
2023-02-24T09:55:42.520Z,1.43
2023-02-24T09:56:42.751Z,0.00
2023-02-24T09:57:42.542Z,0.90
2023-02-24T09:58:44.274Z,0.00
2023-02-24T09:59:42.447Z,0.00
2023-02-24T10:00:42.437Z,0.47
2023-02-24T10:01:42.418Z,0.00
2023-02-24T10:02:42.506Z,0.00
2023-02-24T10:03:42.669Z,0.00
2023-02-24T10:04:42.493Z,0.00
2023-02-24T10:05:42.366Z,0.00
2023-02-24T10:06:42.356Z,0.00
2023-02-24T10:07:42.339Z,0.00
2023-02-24T10:08:42.329Z,2.06
2023-02-24T10:09:42.312Z,0.00
2023-02-24T10:10:42.301Z,0.00
2023-02-24T10:11:42.286Z,0.00
2023-02-24T10:12:42.275Z,0.00
2023-02-24T10:13:42.261Z,0.00
2023-02-24T10:14:44.078Z,0.00
2023-02-24T10:15:42.237Z,0.00
2023-02-24T10:16:42.383Z,0.00
2023-02-24T10:17:42.205Z,0.00
2023-02-24T10:18:42.203Z,1.54
2023-02-24T10:19:42.189Z,0.00
2023-02-24T10:20:42.239Z,0.00
2023-02-24T10:21:42.249Z,0.00
2023-02-24T10:22:42.141Z,0.00
2023-02-24T10:23:43.355Z,0.00
2023-02-24T10:24:42.116Z,0.00
2023-02-24T10:25:42.112Z,0.00
2023-02-24T10:26:51.138Z,0.00
2023-02-24T10:27:44.088Z,0.47
2023-02-24T10:28:42.067Z,0.00
2023-02-24T10:29:42.052Z,0.00
2023-02-24T10:30:42.136Z,0.00
2023-02-24T10:31:42.417Z,0.00
2023-02-24T10:32:42.128Z,0.00
2023-02-24T10:33:42.008Z,0.58
2023-02-24T10:34:41.995Z,0.00
2023-02-24T10:35:41.971Z,0.00
2023-02-24T10:36:41.983Z,0.00
2023-02-24T10:37:41.944Z,0.00
2023-02-24T10:38:41.934Z,0.00
2023-02-24T10:39:41.919Z,2.27
2023-02-24T10:40:41.906Z,0.00
2023-02-24T10:41:41.938Z,3.80
2023-02-24T10:42:41.881Z,1.22
2023-02-24T10:43:41.902Z,2.38
2023-02-24T10:44:43.331Z,1.54
2023-02-24T10:45:41.841Z,2.48
2023-02-24T10:46:42.888Z,2.27
2023-02-24T10:47:41.816Z,4.00
2023-02-24T10:48:42.678Z,2.27
2023-02-24T10:49:41.788Z,2.27
2023-02-24T10:50:55.012Z,0.90
2023-02-24T10:51:41.769Z,1.54
2023-02-24T10:52:41.773Z,1.33
2023-02-24T10:53:41.733Z,1.11
2023-02-24T10:54:41.724Z,1.96
2023-02-24T10:55:41.709Z,1.11
2023-02-24T10:56:41.764Z,0.47
2023-02-24T10:57:53.544Z,1.85
2023-02-24T10:58:41.673Z,0.68
2023-02-24T10:59:41.788Z,1.75
2023-02-24T11:00:41.646Z,1.01
2023-02-24T11:01:41.674Z,0.00
2023-02-24T11:02:41.718Z,0.68
2023-02-24T11:03:41.623Z,0.00
2023-02-24T11:04:41.600Z,1.85
2023-02-24T11:05:41.581Z,1.54
2023-02-24T11:06:41.565Z,0.58
2023-02-24T11:07:41.549Z,0.79
2023-02-24T11:08:41.574Z,0.00
2023-02-24T11:09:41.525Z,2.48
2023-02-24T11:10:41.512Z,0.68
2023-02-24T11:11:41.496Z,0.00
2023-02-24T11:12:41.499Z,1.11
2023-02-24T11:13:41.473Z,0.00
2023-02-24T11:14:41.461Z,0.58
2023-02-24T11:15:43.482Z,0.00
2023-02-24T11:16:41.430Z,1.01
2023-02-24T11:17:41.472Z,0.00
2023-02-24T11:18:41.410Z,1.11
2023-02-24T11:19:41.390Z,0.00
2023-02-24T11:20:48.855Z,0.90
2023-02-24T11:21:43.783Z,0.90
2023-02-24T11:22:41.356Z,2.27
2023-02-24T11:23:41.338Z,0.00
2023-02-24T11:24:41.375Z,0.79
2023-02-24T11:25:41.316Z,1.64
2023-02-24T11:26:41.318Z,0.00
2023-02-24T11:27:41.287Z,1.64
2023-02-24T11:28:41.272Z,0.00
2023-02-24T11:29:41.261Z,1.33
2023-02-24T11:30:41.469Z,1.22
2023-02-24T11:31:41.469Z,0.00
2023-02-24T11:32:41.240Z,0.00
2023-02-24T11:33:41.205Z,0.90
2023-02-24T11:34:41.204Z,0.00
2023-02-24T11:35:41.179Z,0.00
2023-02-24T11:36:41.164Z,2.69
2023-02-24T11:37:43.165Z,0.00
2023-02-24T11:38:41.135Z,1.01
2023-02-24T11:39:41.132Z,0.00
2023-02-24T11:40:41.190Z,0.00
2023-02-24T11:41:41.101Z,0.00
2023-02-24T11:42:41.081Z,0.00
2023-02-24T11:43:41.071Z,0.00
2023-02-24T11:44:41.057Z,0.68
2023-02-24T11:45:41.041Z,0.00
2023-02-24T11:46:41.064Z,0.00
2023-02-24T11:47:41.021Z,3.30
2023-02-24T11:48:41.004Z,0.00
2023-02-24T11:49:40.992Z,0.00
2023-02-24T11:50:40.977Z,1.11
2023-02-24T11:51:40.966Z,0.00
2023-02-24T11:52:40.964Z,0.00
2023-02-24T11:53:40.943Z,0.00
2023-02-24T11:54:40.926Z,1.43
2023-02-24T11:55:40.913Z,1.43
2023-02-24T11:56:40.922Z,0.00
2023-02-24T11:57:40.889Z,0.00
2023-02-24T11:58:40.875Z,0.79
2023-02-24T11:59:40.862Z,0.00
2023-02-24T12:00:40.847Z,0.00
2023-02-24T12:01:40.838Z,0.00
2023-02-24T12:02:40.858Z,3.09
2023-02-24T12:03:40.808Z,0.00
2023-02-24T12:04:40.793Z,0.79
2023-02-24T12:05:40.870Z,0.00
2023-02-24T12:06:40.786Z,0.79
2023-02-24T12:07:40.769Z,0.00
2023-02-24T12:08:40.749Z,0.00
2023-02-24T12:09:40.729Z,0.00
2023-02-24T12:10:40.715Z,1.11
2023-02-24T12:11:40.703Z,2.38
2023-02-24T12:12:40.714Z,0.58
2023-02-24T12:13:40.681Z,0.00
2023-02-24T12:14:40.700Z,0.00
2023-02-24T12:15:40.651Z,1.75
2023-02-24T12:16:40.675Z,0.90
2023-02-24T12:17:40.625Z,0.68
2023-02-24T12:18:40.612Z,0.00
2023-02-24T12:19:40.599Z,0.47
2023-02-24T12:20:40.590Z,0.47
2023-02-24T12:21:40.573Z,1.01
2023-02-24T12:22:40.558Z,1.33
2023-02-24T12:23:40.549Z,0.90
2023-02-24T12:24:40.532Z,0.00
2023-02-24T12:25:40.522Z,0.58
2023-02-24T12:26:40.508Z,1.54
2023-02-24T12:27:40.493Z,0.00
2023-02-24T12:28:40.506Z,0.00
2023-02-24T12:29:40.470Z,2.69
2023-02-24T12:30:40.508Z,0.47
2023-02-24T12:31:40.544Z,0.68
2023-02-24T12:32:40.620Z,3.80
2023-02-24T12:33:40.415Z,1.64
2023-02-24T12:34:40.400Z,0.79
2023-02-24T12:35:40.391Z,4.10
2023-02-24T12:36:40.371Z,0.00
2023-02-24T12:37:40.360Z,2.58
2023-02-24T12:38:40.344Z,0.00
2023-02-24T12:39:40.336Z,0.00
2023-02-24T12:40:40.326Z,0.00
2023-02-24T12:41:40.306Z,0.00
2023-02-24T12:42:40.292Z,0.00
2023-02-24T12:43:40.289Z,0.58
2023-02-24T12:44:40.292Z,2.27
2023-02-24T12:45:40.360Z,0.00
2023-02-24T12:46:40.239Z,0.00
2023-02-24T12:47:40.228Z,1.11
2023-02-24T12:48:40.210Z,0.00
2023-02-24T12:49:40.202Z,0.00
2023-02-24T12:50:40.192Z,1.22
2023-02-24T12:51:40.174Z,0.00
2023-02-24T12:52:40.158Z,0.00
2023-02-24T12:53:40.146Z,1.01
2023-02-24T12:54:40.133Z,0.00
2023-02-24T12:55:40.128Z,1.64
2023-02-24T12:56:40.110Z,0.47
2023-02-24T12:57:40.095Z,0.00
2023-02-24T12:58:40.152Z,0.00
2023-02-24T12:59:40.086Z,0.00
2023-02-24T13:00:40.092Z,0.90
2023-02-24T13:01:40.127Z,0.00
2023-02-24T13:02:40.253Z,2.99
2023-02-24T13:03:40.024Z,0.00
2023-02-24T13:04:40.022Z,0.00
2023-02-24T13:05:39.991Z,0.00
2023-02-24T13:06:39.998Z,0.00
2023-02-24T13:07:39.979Z,0.00
2023-02-24T13:08:39.949Z,0.00
2023-02-24T13:09:39.942Z,0.00
2023-02-24T13:10:39.927Z,0.00
2023-02-24T13:11:39.908Z,0.00
2023-02-24T13:12:39.897Z,0.00
2023-02-24T13:13:39.895Z,0.00
2023-02-24T13:14:39.873Z,1.96
2023-02-24T13:15:39.861Z,0.00
2023-02-24T13:16:39.919Z,0.47
2023-02-24T13:17:39.836Z,0.00
2023-02-24T13:18:39.820Z,0.00
2023-02-24T13:19:39.808Z,0.00